sensor_id;sensor_type;location;lat;lon;timestamp;pressure;altitude;pressure_sealevel;temperature
71081;BMP180;58740;50.672;18.690;2023-11-21T00:00:25;98074.20;;;8.40
71081;BMP180;58740;50.672;18.690;2023-11-21T00:03:18;98079.40;;;8.40
71081;BMP180;58740;50.672;18.690;2023-11-21T00:05:52;98079.60;;;8.40
71081;BMP180;58740;50.672;18.690;2023-11-21T00:08:25;98081.40;;;8.40
71081;BMP180;58740;50.672;18.690;2023-11-21T00:10:59;98085.60;;;8.40
71081;BMP180;58740;50.672;18.690;2023-11-21T00:13:33;98085.60;;;8.40
71081;BMP180;58740;50.672;18.690;2023-11-21T00:16:08;98085.60;;;8.40
71081;BMP180;58740;50.672;18.690;2023-11-21T00:18:41;98087.00;;;8.40
71081;BMP180;58740;50.672;18.690;2023-11-21T00:21:15;98090.40;;;8.40
71081;BMP180;58740;50.672;18.690;2023-11-21T00:23:48;98090.20;;;8.40
71081;BMP180;58740;50.672;18.690;2023-11-21T00:26:22;98090.20;;;8.38
71081;BMP180;58740;50.672;18.690;2023-11-21T00:28:56;98093.00;;;8.34
71081;BMP180;58740;50.672;18.690;2023-11-21T00:31:29;98095.40;;;8.30
71081;BMP180;58740;50.672;18.690;2023-11-21T00:34:03;98100.20;;;8.30
71081;BMP180;58740;50.672;18.690;2023-11-21T00:36:37;98097.20;;;8.30
71081;BMP180;58740;50.672;18.690;2023-11-21T00:39:10;98094.80;;;8.30
71081;BMP180;58740;50.672;18.690;2023-11-21T00:41:44;98107.80;;;8.30
71081;BMP180;58740;50.672;18.690;2023-11-21T00:44:17;98104.60;;;8.28
71081;BMP180;58740;50.672;18.690;2023-11-21T00:46:50;98108.80;;;8.22
71081;BMP180;58740;50.672;18.690;2023-11-21T00:49:24;98110.20;;;8.22
71081;BMP180;58740;50.672;18.690;2023-11-21T00:51:57;98115.00;;;8.22
71081;BMP180;58740;50.672;18.690;2023-11-21T00:54:31;98111.60;;;8.20
71081;BMP180;58740;50.672;18.690;2023-11-21T00:57:06;98106.80;;;8.20
71081;BMP180;58740;50.672;18.690;2023-11-21T00:59:40;98114.20;;;8.20
71081;BMP180;58740;50.672;18.690;2023-11-21T01:02:13;98113.00;;;8.20
71081;BMP180;58740;50.672;18.690;2023-11-21T01:04:47;98109.40;;;8.20
71081;BMP180;58740;50.672;18.690;2023-11-21T01:07:21;98120.20;;;8.20
71081;BMP180;58740;50.672;18.690;2023-11-21T01:09:55;98116.00;;;8.20
71081;BMP180;58740;50.672;18.690;2023-11-21T01:12:28;98113.20;;;8.20
71081;BMP180;58740;50.672;18.690;2023-11-21T01:15:01;98116.00;;;8.20
71081;BMP180;58740;50.672;18.690;2023-11-21T01:17:35;98113.20;;;8.20
71081;BMP180;58740;50.672;18.690;2023-11-21T01:20:11;98113.60;;;8.20
71081;BMP180;58740;50.672;18.690;2023-11-21T01:22:46;98107.20;;;8.20
71081;BMP180;58740;50.672;18.690;2023-11-21T01:25:21;98107.00;;;8.20
71081;BMP180;58740;50.672;18.690;2023-11-21T01:27:54;98106.80;;;8.20
71081;BMP180;58740;50.672;18.690;2023-11-21T01:30:28;98112.20;;;8.20
71081;BMP180;58740;50.672;18.690;2023-11-21T01:33:01;98112.20;;;8.20
71081;BMP180;58740;50.672;18.690;2023-11-21T01:35:35;98109.40;;;8.20
71081;BMP180;58740;50.672;18.690;2023-11-21T01:38:08;98113.20;;;8.20
71081;BMP180;58740;50.672;18.690;2023-11-21T01:40:41;98116.60;;;8.20
71081;BMP180;58740;50.672;18.690;2023-11-21T01:43:15;98116.00;;;8.20
71081;BMP180;58740;50.672;18.690;2023-11-21T01:45:49;98109.00;;;8.20
71081;BMP180;58740;50.672;18.690;2023-11-21T01:48:23;98112.80;;;8.20
71081;BMP180;58740;50.672;18.690;2023-11-21T01:50:56;98118.20;;;8.20
71081;BMP180;58740;50.672;18.690;2023-11-21T01:53:30;98122.00;;;8.20
71081;BMP180;58740;50.672;18.690;2023-11-21T01:56:04;98118.60;;;8.20
71081;BMP180;58740;50.672;18.690;2023-11-21T01:58:39;98114.00;;;8.20
71081;BMP180;58740;50.672;18.690;2023-11-21T02:01:13;98116.00;;;8.20
71081;BMP180;58740;50.672;18.690;2023-11-21T02:03:47;98116.80;;;8.20
71081;BMP180;58740;50.672;18.690;2023-11-21T02:06:21;98121.40;;;8.20
71081;BMP180;58740;50.672;18.690;2023-11-21T02:08:54;98121.20;;;8.20
71081;BMP180;58740;50.672;18.690;2023-11-21T02:11:28;98124.00;;;8.20
71081;BMP180;58740;50.672;18.690;2023-11-21T02:14:01;98123.00;;;8.20
71081;BMP180;58740;50.672;18.690;2023-11-21T02:16:35;98124.40;;;8.20
71081;BMP180;58740;50.672;18.690;2023-11-21T02:19:11;98125.20;;;8.20
71081;BMP180;58740;50.672;18.690;2023-11-21T02:21:46;98121.00;;;8.20
71081;BMP180;58740;50.672;18.690;2023-11-21T02:24:23;98130.00;;;8.20
71081;BMP180;58740;50.672;18.690;2023-11-21T02:26:57;98128.20;;;8.20
71081;BMP180;58740;50.672;18.690;2023-11-21T02:29:30;98125.20;;;8.20
71081;BMP180;58740;50.672;18.690;2023-11-21T02:32:04;98127.60;;;8.20
71081;BMP180;58740;50.672;18.690;2023-11-21T02:34:37;98131.20;;;8.20
71081;BMP180;58740;50.672;18.690;2023-11-21T02:37:11;98138.00;;;8.20
71081;BMP180;58740;50.672;18.690;2023-11-21T02:39:44;98131.00;;;8.20
71081;BMP180;58740;50.672;18.690;2023-11-21T02:42:18;98132.00;;;8.20
71081;BMP180;58740;50.672;18.690;2023-11-21T02:44:51;98134.60;;;8.20
71081;BMP180;58740;50.672;18.690;2023-11-21T02:47:24;98133.80;;;8.16
71081;BMP180;58740;50.672;18.690;2023-11-21T02:49:58;98133.20;;;8.16
71081;BMP180;58740;50.672;18.690;2023-11-21T02:52:31;98135.60;;;8.10
71081;BMP180;58740;50.672;18.690;2023-11-21T02:55:06;98135.60;;;8.10
71081;BMP180;58740;50.672;18.690;2023-11-21T02:57:40;98135.20;;;8.10
71081;BMP180;58740;50.672;18.690;2023-11-21T03:00:14;98131.40;;;8.10
71081;BMP180;58740;50.672;18.690;2023-11-21T03:02:48;98133.40;;;8.10
71081;BMP180;58740;50.672;18.690;2023-11-21T03:05:22;98138.00;;;8.10
71081;BMP180;58740;50.672;18.690;2023-11-21T03:07:55;98137.40;;;8.10
71081;BMP180;58740;50.672;18.690;2023-11-21T03:10:28;98140.80;;;8.10
71081;BMP180;58740;50.672;18.690;2023-11-21T03:13:02;98145.00;;;8.10
71081;BMP180;58740;50.672;18.690;2023-11-21T03:15:36;98148.60;;;8.10
71081;BMP180;58740;50.672;18.690;2023-11-21T03:18:09;98144.20;;;8.10
71081;BMP180;58740;50.672;18.690;2023-11-21T03:20:45;98141.80;;;8.10
71081;BMP180;58740;50.672;18.690;2023-11-21T03:23:19;98149.00;;;8.10
71081;BMP180;58740;50.672;18.690;2023-11-21T03:25:52;98149.60;;;8.10
71081;BMP180;58740;50.672;18.690;2023-11-21T03:28:26;98152.40;;;8.10
71081;BMP180;58740;50.672;18.690;2023-11-21T03:30:59;98157.00;;;8.10
71081;BMP180;58740;50.672;18.690;2023-11-21T03:33:33;98157.00;;;8.10
71081;BMP180;58740;50.672;18.690;2023-11-21T03:36:08;98163.60;;;8.10
71081;BMP180;58740;50.672;18.690;2023-11-21T03:38:42;98168.60;;;8.10
71081;BMP180;58740;50.672;18.690;2023-11-21T03:41:15;98167.00;;;8.10
71081;BMP180;58740;50.672;18.690;2023-11-21T03:43:48;98168.60;;;8.10
71081;BMP180;58740;50.672;18.690;2023-11-21T03:46:22;98169.40;;;8.10
71081;BMP180;58740;50.672;18.690;2023-11-21T03:48:55;98170.00;;;8.10
71081;BMP180;58740;50.672;18.690;2023-11-21T03:51:28;98164.60;;;8.10
71081;BMP180;58740;50.672;18.690;2023-11-21T03:54:02;98167.40;;;8.10
71081;BMP180;58740;50.672;18.690;2023-11-21T03:56:35;98165.20;;;8.10
71081;BMP180;58740;50.672;18.690;2023-11-21T03:59:08;98168.80;;;8.10
71081;BMP180;58740;50.672;18.690;2023-11-21T04:01:41;98170.80;;;8.10
71081;BMP180;58740;50.672;18.690;2023-11-21T04:04:15;98170.40;;;8.10
71081;BMP180;58740;50.672;18.690;2023-11-21T04:06:48;98173.00;;;8.10
71081;BMP180;58740;50.672;18.690;2023-11-21T04:09:24;98177.80;;;8.10
71081;BMP180;58740;50.672;18.690;2023-11-21T04:11:57;98173.20;;;8.10
71081;BMP180;58740;50.672;18.690;2023-11-21T04:14:32;98179.00;;;8.10
71081;BMP180;58740;50.672;18.690;2023-11-21T04:17:05;98176.00;;;8.10
71081;BMP180;58740;50.672;18.690;2023-11-21T04:19:39;98175.20;;;8.10
71081;BMP180;58740;50.672;18.690;2023-11-21T04:22:13;98172.00;;;8.10
71081;BMP180;58740;50.672;18.690;2023-11-21T04:24:46;98178.80;;;8.10
71081;BMP180;58740;50.672;18.690;2023-11-21T04:27:21;98184.00;;;8.10
71081;BMP180;58740;50.672;18.690;2023-11-21T04:29:54;98183.00;;;8.10
71081;BMP180;58740;50.672;18.690;2023-11-21T04:32:27;98185.00;;;8.10
71081;BMP180;58740;50.672;18.690;2023-11-21T04:35:01;98185.40;;;8.10
71081;BMP180;58740;50.672;18.690;2023-11-21T04:37:36;98188.20;;;8.10
71081;BMP180;58740;50.672;18.690;2023-11-21T04:40:12;98189.60;;;8.10
71081;BMP180;58740;50.672;18.690;2023-11-21T04:42:45;98190.80;;;8.10
71081;BMP180;58740;50.672;18.690;2023-11-21T04:45:18;98187.20;;;8.10
71081;BMP180;58740;50.672;18.690;2023-11-21T04:47:52;98194.60;;;8.10
71081;BMP180;58740;50.672;18.690;2023-11-21T04:50:25;98197.80;;;8.10
71081;BMP180;58740;50.672;18.690;2023-11-21T04:52:59;98206.40;;;8.10
71081;BMP180;58740;50.672;18.690;2023-11-21T04:55:32;98208.20;;;8.10
71081;BMP180;58740;50.672;18.690;2023-11-21T04:58:05;98208.40;;;8.10
71081;BMP180;58740;50.672;18.690;2023-11-21T05:00:40;98206.60;;;8.10
71081;BMP180;58740;50.672;18.690;2023-11-21T05:03:13;98207.20;;;8.10
71081;BMP180;58740;50.672;18.690;2023-11-21T05:05:47;98207.60;;;8.10
71081;BMP180;58740;50.672;18.690;2023-11-21T05:08:20;98211.60;;;8.10
71081;BMP180;58740;50.672;18.690;2023-11-21T05:10:54;98213.40;;;8.10
71081;BMP180;58740;50.672;18.690;2023-11-21T05:13:27;98212.60;;;8.10
71081;BMP180;58740;50.672;18.690;2023-11-21T05:16:01;98210.40;;;8.10
71081;BMP180;58740;50.672;18.690;2023-11-21T05:18:36;98215.40;;;8.10
71081;BMP180;58740;50.672;18.690;2023-11-21T05:21:09;98220.40;;;8.10
71081;BMP180;58740;50.672;18.690;2023-11-21T05:23:42;98225.80;;;8.10
71081;BMP180;58740;50.672;18.690;2023-11-21T05:26:16;98225.20;;;8.10
71081;BMP180;58740;50.672;18.690;2023-11-21T05:28:49;98225.40;;;8.10
71081;BMP180;58740;50.672;18.690;2023-11-21T05:31:23;98230.20;;;8.10
71081;BMP180;58740;50.672;18.690;2023-11-21T05:33:56;98227.00;;;8.10
71081;BMP180;58740;50.672;18.690;2023-11-21T05:36:30;98228.20;;;8.10
71081;BMP180;58740;50.672;18.690;2023-11-21T05:39:04;98231.60;;;8.10
71081;BMP180;58740;50.672;18.690;2023-11-21T05:41:37;98232.00;;;8.10
71081;BMP180;58740;50.672;18.690;2023-11-21T05:44:10;98231.60;;;8.10
71081;BMP180;58740;50.672;18.690;2023-11-21T05:46:44;98239.20;;;8.10
71081;BMP180;58740;50.672;18.690;2023-11-21T05:49:17;98237.80;;;8.10
71081;BMP180;58740;50.672;18.690;2023-11-21T05:51:54;98239.40;;;8.10
71081;BMP180;58740;50.672;18.690;2023-11-21T05:54:27;98239.20;;;8.10
71081;BMP180;58740;50.672;18.690;2023-11-21T05:57:01;98239.00;;;8.10
71081;BMP180;58740;50.672;18.690;2023-11-21T05:59:34;98239.20;;;8.10
71081;BMP180;58740;50.672;18.690;2023-11-21T06:02:08;98240.20;;;8.10
71081;BMP180;58740;50.672;18.690;2023-11-21T06:04:41;98242.00;;;8.10
71081;BMP180;58740;50.672;18.690;2023-11-21T06:07:15;98247.40;;;8.10
71081;BMP180;58740;50.672;18.690;2023-11-21T06:09:48;98251.60;;;8.10
71081;BMP180;58740;50.672;18.690;2023-11-21T06:12:22;98259.80;;;8.10
71081;BMP180;58740;50.672;18.690;2023-11-21T06:14:55;98258.40;;;8.10
71081;BMP180;58740;50.672;18.690;2023-11-21T06:17:28;98257.20;;;8.10
71081;BMP180;58740;50.672;18.690;2023-11-21T06:20:02;98263.20;;;8.10
71081;BMP180;58740;50.672;18.690;2023-11-21T06:22:42;98265.40;;;8.10
71081;BMP180;58740;50.672;18.690;2023-11-21T06:25:16;98267.80;;;8.10
71081;BMP180;58740;50.672;18.690;2023-11-21T06:27:51;98270.40;;;8.10
71081;BMP180;58740;50.672;18.690;2023-11-21T06:30:26;98267.40;;;8.10
71081;BMP180;58740;50.672;18.690;2023-11-21T06:33:00;98269.60;;;8.10
71081;BMP180;58740;50.672;18.690;2023-11-21T06:35:34;98272.80;;;8.10
71081;BMP180;58740;50.672;18.690;2023-11-21T06:38:07;98275.60;;;8.10
71081;BMP180;58740;50.672;18.690;2023-11-21T06:40:41;98275.20;;;8.12
71081;BMP180;58740;50.672;18.690;2023-11-21T06:43:15;98280.20;;;8.10
71081;BMP180;58740;50.672;18.690;2023-11-21T06:45:49;98287.80;;;8.10
71081;BMP180;58740;50.672;18.690;2023-11-21T06:48:22;98290.20;;;8.10
71081;BMP180;58740;50.672;18.690;2023-11-21T06:50:56;98293.40;;;8.10
71081;BMP180;58740;50.672;18.690;2023-11-21T06:53:29;98298.80;;;8.10
71081;BMP180;58740;50.672;18.690;2023-11-21T06:56:03;98298.20;;;8.10
71081;BMP180;58740;50.672;18.690;2023-11-21T06:58:37;98306.40;;;8.10
71081;BMP180;58740;50.672;18.690;2023-11-21T07:01:12;98305.80;;;8.10
71081;BMP180;58740;50.672;18.690;2023-11-21T07:03:47;98302.40;;;8.10
71081;BMP180;58740;50.672;18.690;2023-11-21T07:06:20;98304.20;;;8.18
71081;BMP180;58740;50.672;18.690;2023-11-21T07:08:53;98301.80;;;8.14
71081;BMP180;58740;50.672;18.690;2023-11-21T07:11:27;98308.00;;;8.20
71081;BMP180;58740;50.672;18.690;2023-11-21T07:14:00;98309.40;;;8.18
71081;BMP180;58740;50.672;18.690;2023-11-21T07:16:38;98313.00;;;8.20
71081;BMP180;58740;50.672;18.690;2023-11-21T07:19:12;98312.40;;;8.20
71081;BMP180;58740;50.672;18.690;2023-11-21T07:21:45;98314.20;;;8.20
71081;BMP180;58740;50.672;18.690;2023-11-21T07:24:19;98316.40;;;8.20
71081;BMP180;58740;50.672;18.690;2023-11-21T07:26:54;98319.80;;;8.20
71081;BMP180;58740;50.672;18.690;2023-11-21T07:29:28;98316.80;;;8.20
71081;BMP180;58740;50.672;18.690;2023-11-21T07:32:02;98323.60;;;8.20
71081;BMP180;58740;50.672;18.690;2023-11-21T07:34:36;98320.80;;;8.20
71081;BMP180;58740;50.672;18.690;2023-11-21T07:37:09;98323.60;;;8.20
71081;BMP180;58740;50.672;18.690;2023-11-21T07:39:43;98321.20;;;8.26
71081;BMP180;58740;50.672;18.690;2023-11-21T07:42:17;98321.80;;;8.28
71081;BMP180;58740;50.672;18.690;2023-11-21T07:44:50;98321.80;;;8.30
71081;BMP180;58740;50.672;18.690;2023-11-21T07:47:24;98320.80;;;8.30
71081;BMP180;58740;50.672;18.690;2023-11-21T07:49:59;98318.80;;;8.30
71081;BMP180;58740;50.672;18.690;2023-11-21T07:52:35;98320.20;;;8.30
71081;BMP180;58740;50.672;18.690;2023-11-21T07:55:09;98319.20;;;8.30
71081;BMP180;58740;50.672;18.690;2023-11-21T07:57:43;98326.00;;;8.30
71081;BMP180;58740;50.672;18.690;2023-11-21T08:00:18;98328.20;;;8.30
71081;BMP180;58740;50.672;18.690;2023-11-21T08:02:53;98329.80;;;8.30
71081;BMP180;58740;50.672;18.690;2023-11-21T08:05:26;98332.40;;;8.30
71081;BMP180;58740;50.672;18.690;2023-11-21T08:08:08;98337.80;;;8.30
71081;BMP180;58740;50.672;18.690;2023-11-21T08:10:42;98335.00;;;8.30
71081;BMP180;58740;50.672;18.690;2023-11-21T08:13:18;98337.20;;;8.30
71081;BMP180;58740;50.672;18.690;2023-11-21T08:15:53;98343.00;;;8.30
71081;BMP180;58740;50.672;18.690;2023-11-21T08:18:27;98338.80;;;8.34
71081;BMP180;58740;50.672;18.690;2023-11-21T08:21:00;98338.40;;;8.40
71081;BMP180;58740;50.672;18.690;2023-11-21T08:23:35;98339.80;;;8.40
71081;BMP180;58740;50.672;18.690;2023-11-21T08:26:09;98341.00;;;8.40
71081;BMP180;58740;50.672;18.690;2023-11-21T08:28:42;98343.80;;;8.40
71081;BMP180;58740;50.672;18.690;2023-11-21T08:31:16;98342.00;;;8.40
71081;BMP180;58740;50.672;18.690;2023-11-21T08:33:49;98347.20;;;8.40
71081;BMP180;58740;50.672;18.690;2023-11-21T08:36:22;98347.20;;;8.40
71081;BMP180;58740;50.672;18.690;2023-11-21T08:38:56;98351.00;;;8.40
71081;BMP180;58740;50.672;18.690;2023-11-21T08:41:29;98354.40;;;8.40
71081;BMP180;58740;50.672;18.690;2023-11-21T08:44:03;98357.60;;;8.40
71081;BMP180;58740;50.672;18.690;2023-11-21T08:46:39;98356.20;;;8.40
71081;BMP180;58740;50.672;18.690;2023-11-21T08:49:14;98350.80;;;8.40
71081;BMP180;58740;50.672;18.690;2023-11-21T08:51:48;98354.80;;;8.40
71081;BMP180;58740;50.672;18.690;2023-11-21T08:54:22;98350.80;;;8.40
71081;BMP180;58740;50.672;18.690;2023-11-21T08:56:55;98353.20;;;8.40
71081;BMP180;58740;50.672;18.690;2023-11-21T08:59:30;98350.40;;;8.40
71081;BMP180;58740;50.672;18.690;2023-11-21T09:02:03;98351.80;;;8.40
71081;BMP180;58740;50.672;18.690;2023-11-21T09:04:37;98345.00;;;8.40
71081;BMP180;58740;50.672;18.690;2023-11-21T09:07:12;98348.60;;;8.40
71081;BMP180;58740;50.672;18.690;2023-11-21T09:09:46;98352.60;;;8.48
71081;BMP180;58740;50.672;18.690;2023-11-21T09:12:19;98355.00;;;8.50
71081;BMP180;58740;50.672;18.690;2023-11-21T09:14:53;98352.80;;;8.50
71081;BMP180;58740;50.672;18.690;2023-11-21T09:17:26;98351.60;;;8.50
71081;BMP180;58740;50.672;18.690;2023-11-21T09:20:00;98349.80;;;8.50
71081;BMP180;58740;50.672;18.690;2023-11-21T09:22:36;98348.00;;;8.50
71081;BMP180;58740;50.672;18.690;2023-11-21T09:25:10;98345.40;;;8.52
71081;BMP180;58740;50.672;18.690;2023-11-21T09:27:45;98343.60;;;8.60
71081;BMP180;58740;50.672;18.690;2023-11-21T09:30:19;98347.40;;;8.60
71081;BMP180;58740;50.672;18.690;2023-11-21T09:32:52;98345.60;;;8.60
71081;BMP180;58740;50.672;18.690;2023-11-21T09:35:25;98346.60;;;8.60
71081;BMP180;58740;50.672;18.690;2023-11-21T09:37:59;98349.80;;;8.60
71081;BMP180;58740;50.672;18.690;2023-11-21T09:40:37;98347.00;;;8.60
71081;BMP180;58740;50.672;18.690;2023-11-21T09:43:18;98347.60;;;8.60
71081;BMP180;58740;50.672;18.690;2023-11-21T09:45:59;98348.00;;;8.60
71081;BMP180;58740;50.672;18.690;2023-11-21T09:48:33;98349.60;;;8.60
71081;BMP180;58740;50.672;18.690;2023-11-21T09:51:09;98346.00;;;8.60
71081;BMP180;58740;50.672;18.690;2023-11-21T09:53:47;98351.00;;;8.60
71081;BMP180;58740;50.672;18.690;2023-11-21T09:56:22;98343.40;;;8.62
71081;BMP180;58740;50.672;18.690;2023-11-21T09:58:56;98340.60;;;8.60
71081;BMP180;58740;50.672;18.690;2023-11-21T10:01:37;98349.40;;;8.64
71081;BMP180;58740;50.672;18.690;2023-11-21T10:04:11;98345.20;;;8.66
71081;BMP180;58740;50.672;18.690;2023-11-21T10:06:46;98348.00;;;8.68
71081;BMP180;58740;50.672;18.690;2023-11-21T10:09:22;98348.40;;;8.70
71081;BMP180;58740;50.672;18.690;2023-11-21T10:11:56;98347.40;;;8.70
71081;BMP180;58740;50.672;18.690;2023-11-21T10:14:33;98346.20;;;8.70
71081;BMP180;58740;50.672;18.690;2023-11-21T10:17:08;98345.00;;;8.70
71081;BMP180;58740;50.672;18.690;2023-11-21T10:19:45;98342.20;;;8.70
71081;BMP180;58740;50.672;18.690;2023-11-21T10:22:20;98344.80;;;8.70
71081;BMP180;58740;50.672;18.690;2023-11-21T10:24:56;98349.00;;;8.70
71081;BMP180;58740;50.672;18.690;2023-11-21T10:27:29;98349.60;;;8.70
71081;BMP180;58740;50.672;18.690;2023-11-21T10:30:06;98349.40;;;8.70
71081;BMP180;58740;50.672;18.690;2023-11-21T10:32:40;98353.00;;;8.70
71081;BMP180;58740;50.672;18.690;2023-11-21T10:35:13;98353.60;;;8.70
71081;BMP180;58740;50.672;18.690;2023-11-21T10:38:00;98359.40;;;8.70
71081;BMP180;58740;50.672;18.690;2023-11-21T10:40:35;98358.40;;;8.70
71081;BMP180;58740;50.672;18.690;2023-11-21T10:43:12;98355.80;;;8.70
71081;BMP180;58740;50.672;18.690;2023-11-21T10:45:47;98355.00;;;8.70
71081;BMP180;58740;50.672;18.690;2023-11-21T10:48:21;98355.80;;;8.70
71081;BMP180;58740;50.672;18.690;2023-11-21T10:50:56;98360.00;;;8.70
71081;BMP180;58740;50.672;18.690;2023-11-21T10:53:32;98365.40;;;8.70
71081;BMP180;58740;50.672;18.690;2023-11-21T10:56:10;98364.60;;;8.70
71081;BMP180;58740;50.672;18.690;2023-11-21T10:58:51;98359.80;;;8.70
71081;BMP180;58740;50.672;18.690;2023-11-21T11:01:30;98361.40;;;8.70
71081;BMP180;58740;50.672;18.690;2023-11-21T11:04:07;98353.00;;;8.70
71081;BMP180;58740;50.672;18.690;2023-11-21T11:06:50;98355.20;;;8.70
71081;BMP180;58740;50.672;18.690;2023-11-21T11:09:24;98353.00;;;8.70
71081;BMP180;58740;50.672;18.690;2023-11-21T11:11:59;98353.60;;;8.70
71081;BMP180;58740;50.672;18.690;2023-11-21T11:14:35;98355.20;;;8.68
71081;BMP180;58740;50.672;18.690;2023-11-21T11:17:10;98350.80;;;8.66
71081;BMP180;58740;50.672;18.690;2023-11-21T11:19:44;98351.80;;;8.70
71081;BMP180;58740;50.672;18.690;2023-11-21T11:22:44;98351.40;;;8.70
71081;BMP180;58740;50.672;18.690;2023-11-21T11:25:35;98350.80;;;8.70
71081;BMP180;58740;50.672;18.690;2023-11-21T11:28:17;98357.00;;;8.70
71081;BMP180;58740;50.672;18.690;2023-11-21T11:31:04;98354.80;;;8.70
71081;BMP180;58740;50.672;18.690;2023-11-21T11:33:45;98349.20;;;8.66
71081;BMP180;58740;50.672;18.690;2023-11-21T11:36:28;98357.20;;;8.60
71081;BMP180;58740;50.672;18.690;2023-11-21T11:39:02;98357.00;;;8.60
71081;BMP180;58740;50.672;18.690;2023-11-21T11:41:37;98354.20;;;8.60
71081;BMP180;58740;50.672;18.690;2023-11-21T11:44:53;98362.00;;;8.60
71081;BMP180;58740;50.672;18.690;2023-11-21T11:47:29;98362.40;;;8.60
71081;BMP180;58740;50.672;18.690;2023-11-21T11:50:09;98363.80;;;8.60
71081;BMP180;58740;50.672;18.690;2023-11-21T11:52:47;98363.40;;;8.60
71081;BMP180;58740;50.672;18.690;2023-11-21T11:55:24;98363.60;;;8.60
71081;BMP180;58740;50.672;18.690;2023-11-21T11:57:58;98365.60;;;8.60
71081;BMP180;58740;50.672;18.690;2023-11-21T12:00:38;98367.60;;;8.60
71081;BMP180;58740;50.672;18.690;2023-11-21T12:03:14;98372.00;;;8.60
71081;BMP180;58740;50.672;18.690;2023-11-21T12:05:50;98372.20;;;8.60
71081;BMP180;58740;50.672;18.690;2023-11-21T12:08:32;98369.80;;;8.60
71081;BMP180;58740;50.672;18.690;2023-11-21T12:11:07;98372.20;;;8.60
71081;BMP180;58740;50.672;18.690;2023-11-21T12:13:43;98368.20;;;8.68
71081;BMP180;58740;50.672;18.690;2023-11-21T12:16:17;98375.20;;;8.70
71081;BMP180;58740;50.672;18.690;2023-11-21T12:18:53;98371.00;;;8.70
71081;BMP180;58740;50.672;18.690;2023-11-21T12:21:26;98373.80;;;8.70
71081;BMP180;58740;50.672;18.690;2023-11-21T12:24:00;98376.40;;;8.70
71081;BMP180;58740;50.672;18.690;2023-11-21T12:26:34;98377.60;;;8.70
71081;BMP180;58740;50.672;18.690;2023-11-21T12:29:08;98382.80;;;8.70
71081;BMP180;58740;50.672;18.690;2023-11-21T12:31:42;98377.00;;;8.70
71081;BMP180;58740;50.672;18.690;2023-11-21T12:34:17;98377.80;;;8.70
71081;BMP180;58740;50.672;18.690;2023-11-21T12:36:50;98383.60;;;8.70
71081;BMP180;58740;50.672;18.690;2023-11-21T12:39:26;98385.40;;;8.78
71081;BMP180;58740;50.672;18.690;2023-11-21T12:42:01;98379.80;;;8.70
71081;BMP180;58740;50.672;18.690;2023-11-21T12:44:34;98380.60;;;8.70
71081;BMP180;58740;50.672;18.690;2023-11-21T12:47:08;98386.60;;;8.70
71081;BMP180;58740;50.672;18.690;2023-11-21T12:54:15;98384.80;;;8.70
71081;BMP180;58740;50.672;18.690;2023-11-21T12:56:50;98386.40;;;8.70
71081;BMP180;58740;50.672;18.690;2023-11-21T12:59:24;98391.80;;;8.60
71081;BMP180;58740;50.672;18.690;2023-11-21T13:01:59;98389.80;;;8.62
71081;BMP180;58740;50.672;18.690;2023-11-21T13:04:37;98393.40;;;8.70
71081;BMP180;58740;50.672;18.690;2023-11-21T13:07:11;98396.60;;;8.70
71081;BMP180;58740;50.672;18.690;2023-11-21T13:09:47;98401.00;;;8.70
71081;BMP180;58740;50.672;18.690;2023-11-21T13:12:26;98402.20;;;8.70
71081;BMP180;58740;50.672;18.690;2023-11-21T13:15:07;98403.80;;;8.70
71081;BMP180;58740;50.672;18.690;2023-11-21T13:17:42;98404.80;;;8.70
71081;BMP180;58740;50.672;18.690;2023-11-21T13:20:17;98401.60;;;8.70
71081;BMP180;58740;50.672;18.690;2023-11-21T13:22:54;98409.20;;;8.70
71081;BMP180;58740;50.672;18.690;2023-11-21T13:25:30;98414.00;;;8.70
71081;BMP180;58740;50.672;18.690;2023-11-21T13:28:05;98413.40;;;8.70
71081;BMP180;58740;50.672;18.690;2023-11-21T13:30:42;98420.80;;;8.60
71081;BMP180;58740;50.672;18.690;2023-11-21T13:33:18;98425.00;;;8.50
71081;BMP180;58740;50.672;18.690;2023-11-21T13:36:00;98427.60;;;8.38
71081;BMP180;58740;50.672;18.690;2023-11-21T13:38:35;98429.00;;;8.20
71081;BMP180;58740;50.672;18.690;2023-11-21T13:41:14;98429.80;;;8.14
71081;BMP180;58740;50.672;18.690;2023-11-21T13:43:51;98432.80;;;8.10
71081;BMP180;58740;50.672;18.690;2023-11-21T13:46:37;98441.00;;;8.00
71081;BMP180;58740;50.672;18.690;2023-11-21T13:49:14;98443.20;;;7.92
71081;BMP180;58740;50.672;18.690;2023-11-21T13:51:49;98447.40;;;7.90
71081;BMP180;58740;50.672;18.690;2023-11-21T13:54:27;98450.00;;;7.80
71081;BMP180;58740;50.672;18.690;2023-11-21T13:57:02;98456.00;;;7.80
71081;BMP180;58740;50.672;18.690;2023-11-21T13:59:38;98456.40;;;7.72
71081;BMP180;58740;50.672;18.690;2023-11-21T14:02:12;98455.40;;;7.70
71081;BMP180;58740;50.672;18.690;2023-11-21T14:04:50;98460.40;;;7.70
71081;BMP180;58740;50.672;18.690;2023-11-21T14:07:27;98463.40;;;7.70
71081;BMP180;58740;50.672;18.690;2023-11-21T14:10:09;98463.20;;;7.60
71081;BMP180;58740;50.672;18.690;2023-11-21T14:12:46;98467.60;;;7.58
71081;BMP180;58740;50.672;18.690;2023-11-21T14:15:20;98473.80;;;7.50
71081;BMP180;58740;50.672;18.690;2023-11-21T14:17:54;98478.80;;;7.40
71081;BMP180;58740;50.672;18.690;2023-11-21T14:20:28;98480.40;;;7.40
71081;BMP180;58740;50.672;18.690;2023-11-21T14:23:03;98486.40;;;7.30
71081;BMP180;58740;50.672;18.690;2023-11-21T14:25:37;98488.80;;;7.30
71081;BMP180;58740;50.672;18.690;2023-11-21T14:28:11;98500.20;;;7.20
71081;BMP180;58740;50.672;18.690;2023-11-21T14:30:45;98505.80;;;7.20
71081;BMP180;58740;50.672;18.690;2023-11-21T14:33:19;98515.00;;;7.10
71081;BMP180;58740;50.672;18.690;2023-11-21T14:35:52;98510.80;;;7.00
71081;BMP180;58740;50.672;18.690;2023-11-21T14:38:26;98520.00;;;7.00
71081;BMP180;58740;50.672;18.690;2023-11-21T14:41:00;98517.80;;;6.94
71081;BMP180;58740;50.672;18.690;2023-11-21T14:43:34;98516.60;;;6.90
71081;BMP180;58740;50.672;18.690;2023-11-21T14:46:08;98519.00;;;6.88
71081;BMP180;58740;50.672;18.690;2023-11-21T14:48:42;98517.00;;;6.80
71081;BMP180;58740;50.672;18.690;2023-11-21T14:51:19;98528.20;;;6.70
71081;BMP180;58740;50.672;18.690;2023-11-21T14:54:00;98529.20;;;6.70
71081;BMP180;58740;50.672;18.690;2023-11-21T14:56:39;98520.20;;;6.70